sensor_id;sensor_type;location;lat;lon;timestamp;P1;durP1;ratioP1;P2;durP2;ratioP2
6376;SDS011;3221;48.858;10.128;2023-06-14T00:00:45;5.20;;;4.20;;
6376;SDS011;3221;48.858;10.128;2023-06-14T00:03:14;4.93;;;3.90;;
6376;SDS011;3221;48.858;10.128;2023-06-14T00:05:44;4.03;;;3.43;;
6376;SDS011;3221;48.858;10.128;2023-06-14T00:08:13;4.43;;;3.90;;
6376;SDS011;3221;48.858;10.128;2023-06-14T00:10:41;4.70;;;4.10;;
6376;SDS011;3221;48.858;10.128;2023-06-14T00:13:09;4.43;;;4.03;;
6376;SDS011;3221;48.858;10.128;2023-06-14T00:15:36;5.43;;;4.10;;
6376;SDS011;3221;48.858;10.128;2023-06-14T00:18:04;5.80;;;4.07;;
6376;SDS011;3221;48.858;10.128;2023-06-14T00:20:32;4.67;;;4.10;;
6376;SDS011;3221;48.858;10.128;2023-06-14T00:23:00;4.80;;;4.30;;
6376;SDS011;3221;48.858;10.128;2023-06-14T00:25:27;5.00;;;4.13;;
6376;SDS011;3221;48.858;10.128;2023-06-14T00:27:56;4.80;;;3.83;;
6376;SDS011;3221;48.858;10.128;2023-06-14T00:30:24;4.40;;;3.90;;
6376;SDS011;3221;48.858;10.128;2023-06-14T00:32:51;5.43;;;4.27;;
6376;SDS011;3221;48.858;10.128;2023-06-14T00:35:18;5.50;;;4.20;;
6376;SDS011;3221;48.858;10.128;2023-06-14T00:37:45;5.53;;;3.93;;
6376;SDS011;3221;48.858;10.128;2023-06-14T00:40:12;5.00;;;3.97;;
6376;SDS011;3221;48.858;10.128;2023-06-14T00:42:40;5.50;;;3.90;;
6376;SDS011;3221;48.858;10.128;2023-06-14T00:45:07;4.10;;;3.70;;
6376;SDS011;3221;48.858;10.128;2023-06-14T00:47:34;4.63;;;3.43;;
6376;SDS011;3221;48.858;10.128;2023-06-14T00:50:05;5.30;;;3.40;;
6376;SDS011;3221;48.858;10.128;2023-06-14T00:52:33;4.00;;;3.57;;
6376;SDS011;3221;48.858;10.128;2023-06-14T00:55:01;4.40;;;3.50;;
6376;SDS011;3221;48.858;10.128;2023-06-14T00:57:28;5.07;;;3.50;;
6376;SDS011;3221;48.858;10.128;2023-06-14T00:59:56;4.27;;;3.63;;
6376;SDS011;3221;48.858;10.128;2023-06-14T01:02:22;4.50;;;3.80;;
6376;SDS011;3221;48.858;10.128;2023-06-14T01:04:50;5.30;;;3.83;;
6376;SDS011;3221;48.858;10.128;2023-06-14T01:10:05;4.43;;;3.57;;
6376;SDS011;3221;48.858;10.128;2023-06-14T01:13:12;4.07;;;3.40;;
6376;SDS011;3221;48.858;10.128;2023-06-14T01:15:45;4.10;;;3.70;;
6376;SDS011;3221;48.858;10.128;2023-06-14T01:18:13;5.17;;;3.60;;
6376;SDS011;3221;48.858;10.128;2023-06-14T01:20:45;3.83;;;3.43;;
6376;SDS011;3221;48.858;10.128;2023-06-14T01:23:19;4.50;;;3.60;;
6376;SDS011;3221;48.858;10.128;2023-06-14T01:25:47;5.30;;;3.87;;
6376;SDS011;3221;48.858;10.128;2023-06-14T01:28:19;4.53;;;3.77;;
6376;SDS011;3221;48.858;10.128;2023-06-14T01:30:48;3.90;;;3.50;;
6376;SDS011;3221;48.858;10.128;2023-06-14T01:33:20;5.07;;;3.60;;
6376;SDS011;3221;48.858;10.128;2023-06-14T01:35:50;7.60;;;3.60;;
6376;SDS011;3221;48.858;10.128;2023-06-14T01:38:17;4.63;;;3.53;;
6376;SDS011;3221;48.858;10.128;2023-06-14T01:40:47;5.03;;;4.00;;
6376;SDS011;3221;48.858;10.128;2023-06-14T01:43:15;4.40;;;3.80;;
6376;SDS011;3221;48.858;10.128;2023-06-14T01:45:42;4.63;;;3.93;;
6376;SDS011;3221;48.858;10.128;2023-06-14T01:48:13;4.53;;;3.97;;
6376;SDS011;3221;48.858;10.128;2023-06-14T01:50:40;5.37;;;4.60;;
6376;SDS011;3221;48.858;10.128;2023-06-14T01:53:08;5.03;;;4.03;;
6376;SDS011;3221;48.858;10.128;2023-06-14T01:55:36;5.33;;;4.20;;
6376;SDS011;3221;48.858;10.128;2023-06-14T01:58:06;6.80;;;5.57;;
6376;SDS011;3221;48.858;10.128;2023-06-14T02:00:32;8.17;;;6.83;;
6376;SDS011;3221;48.858;10.128;2023-06-14T02:02:59;9.23;;;7.20;;
6376;SDS011;3221;48.858;10.128;2023-06-14T02:05:27;7.87;;;6.73;;
6376;SDS011;3221;48.858;10.128;2023-06-14T02:07:54;9.13;;;5.87;;
6376;SDS011;3221;48.858;10.128;2023-06-14T02:10:21;9.43;;;6.00;;
6376;SDS011;3221;48.858;10.128;2023-06-14T02:12:48;6.73;;;5.63;;
6376;SDS011;3221;48.858;10.128;2023-06-14T02:15:15;6.20;;;5.10;;
6376;SDS011;3221;48.858;10.128;2023-06-14T02:17:46;5.53;;;5.03;;
6376;SDS011;3221;48.858;10.128;2023-06-14T02:20:16;6.17;;;4.63;;
6376;SDS011;3221;48.858;10.128;2023-06-14T02:22:44;7.57;;;5.10;;
6376;SDS011;3221;48.858;10.128;2023-06-14T02:25:11;7.63;;;5.50;;
6376;SDS011;3221;48.858;10.128;2023-06-14T02:27:39;6.83;;;5.30;;
6376;SDS011;3221;48.858;10.128;2023-06-14T02:30:06;8.47;;;5.43;;
6376;SDS011;3221;48.858;10.128;2023-06-14T02:32:34;9.47;;;5.77;;
6376;SDS011;3221;48.858;10.128;2023-06-14T02:35:02;6.87;;;5.23;;
6376;SDS011;3221;48.858;10.128;2023-06-14T02:37:29;6.73;;;5.77;;
6376;SDS011;3221;48.858;10.128;2023-06-14T02:39:57;7.53;;;5.57;;
6376;SDS011;3221;48.858;10.128;2023-06-14T02:42:24;6.07;;;4.90;;
6376;SDS011;3221;48.858;10.128;2023-06-14T02:44:51;5.80;;;4.80;;
6376;SDS011;3221;48.858;10.128;2023-06-14T02:47:20;6.27;;;5.37;;
6376;SDS011;3221;48.858;10.128;2023-06-14T02:49:47;7.17;;;4.53;;
6376;SDS011;3221;48.858;10.128;2023-06-14T02:52:14;5.20;;;4.60;;
6376;SDS011;3221;48.858;10.128;2023-06-14T02:54:41;5.80;;;4.00;;
6376;SDS011;3221;48.858;10.128;2023-06-14T02:57:09;5.43;;;4.70;;
6376;SDS011;3221;48.858;10.128;2023-06-14T02:59:38;5.97;;;5.37;;
6376;SDS011;3221;48.858;10.128;2023-06-14T03:02:05;7.23;;;5.43;;
6376;SDS011;3221;48.858;10.128;2023-06-14T03:04:33;7.37;;;5.57;;
6376;SDS011;3221;48.858;10.128;2023-06-14T03:07:08;7.00;;;5.47;;
6376;SDS011;3221;48.858;10.128;2023-06-14T03:09:41;7.73;;;6.70;;
6376;SDS011;3221;48.858;10.128;2023-06-14T03:12:10;8.90;;;6.23;;
6376;SDS011;3221;48.858;10.128;2023-06-14T03:14:38;7.17;;;6.17;;
6376;SDS011;3221;48.858;10.128;2023-06-14T03:17:07;6.17;;;5.57;;
6376;SDS011;3221;48.858;10.128;2023-06-14T03:19:35;6.70;;;5.77;;
6376;SDS011;3221;48.858;10.128;2023-06-14T03:22:03;6.63;;;5.63;;
6376;SDS011;3221;48.858;10.128;2023-06-14T03:24:32;8.50;;;5.67;;
6376;SDS011;3221;48.858;10.128;2023-06-14T03:27:08;6.80;;;5.37;;
6376;SDS011;3221;48.858;10.128;2023-06-14T03:29:39;6.37;;;5.27;;
6376;SDS011;3221;48.858;10.128;2023-06-14T03:32:06;5.47;;;4.93;;
6376;SDS011;3221;48.858;10.128;2023-06-14T03:34:37;8.37;;;5.73;;
6376;SDS011;3221;48.858;10.128;2023-06-14T03:37:12;7.43;;;5.40;;
6376;SDS011;3221;48.858;10.128;2023-06-14T03:39:39;5.90;;;4.90;;
6376;SDS011;3221;48.858;10.128;2023-06-14T03:42:15;7.50;;;5.13;;
6376;SDS011;3221;48.858;10.128;2023-06-14T03:44:43;7.07;;;4.67;;
6376;SDS011;3221;48.858;10.128;2023-06-14T03:47:11;5.97;;;4.20;;
6376;SDS011;3221;48.858;10.128;2023-06-14T03:49:38;5.00;;;4.30;;
6376;SDS011;3221;48.858;10.128;2023-06-14T03:52:06;4.50;;;4.10;;
6376;SDS011;3221;48.858;10.128;2023-06-14T03:54:35;5.07;;;4.27;;
6376;SDS011;3221;48.858;10.128;2023-06-14T03:57:04;7.13;;;3.87;;
6376;SDS011;3221;48.858;10.128;2023-06-14T03:59:33;5.93;;;3.97;;
6376;SDS011;3221;48.858;10.128;2023-06-14T04:02:00;6.43;;;4.40;;
6376;SDS011;3221;48.858;10.128;2023-06-14T04:04:27;4.83;;;3.77;;
6376;SDS011;3221;48.858;10.128;2023-06-14T04:06:57;7.50;;;4.90;;
6376;SDS011;3221;48.858;10.128;2023-06-14T04:09:25;6.60;;;4.33;;
6376;SDS011;3221;48.858;10.128;2023-06-14T04:11:52;9.33;;;4.57;;
6376;SDS011;3221;48.858;10.128;2023-06-14T04:14:19;7.60;;;4.97;;
6376;SDS011;3221;48.858;10.128;2023-06-14T04:16:47;7.57;;;5.40;;
6376;SDS011;3221;48.858;10.128;2023-06-14T04:19:16;8.83;;;6.97;;
6376;SDS011;3221;48.858;10.128;2023-06-14T04:21:43;9.63;;;6.03;;
6376;SDS011;3221;48.858;10.128;2023-06-14T04:24:12;8.43;;;5.27;;
6376;SDS011;3221;48.858;10.128;2023-06-14T04:26:43;6.97;;;5.20;;
6376;SDS011;3221;48.858;10.128;2023-06-14T04:29:16;7.00;;;4.93;;
6376;SDS011;3221;48.858;10.128;2023-06-14T04:31:53;6.80;;;5.27;;
6376;SDS011;3221;48.858;10.128;2023-06-14T04:34:25;7.73;;;4.80;;
6376;SDS011;3221;48.858;10.128;2023-06-14T04:36:56;6.23;;;4.97;;
6376;SDS011;3221;48.858;10.128;2023-06-14T04:39:30;5.50;;;4.73;;
6376;SDS011;3221;48.858;10.128;2023-06-14T04:41:58;5.60;;;4.97;;
6376;SDS011;3221;48.858;10.128;2023-06-14T04:44:27;6.47;;;4.20;;
6376;SDS011;3221;48.858;10.128;2023-06-14T04:47:00;5.13;;;4.20;;
6376;SDS011;3221;48.858;10.128;2023-06-14T04:49:27;5.97;;;4.93;;
6376;SDS011;3221;48.858;10.128;2023-06-14T04:51:59;5.70;;;4.40;;
6376;SDS011;3221;48.858;10.128;2023-06-14T04:54:33;5.40;;;4.40;;
6376;SDS011;3221;48.858;10.128;2023-06-14T04:57:07;5.10;;;4.50;;
6376;SDS011;3221;48.858;10.128;2023-06-14T04:59:34;4.93;;;4.53;;
6376;SDS011;3221;48.858;10.128;2023-06-14T05:02:02;5.53;;;4.70;;
6376;SDS011;3221;48.858;10.128;2023-06-14T05:04:29;5.43;;;4.57;;
6376;SDS011;3221;48.858;10.128;2023-06-14T05:06:57;5.00;;;4.20;;
6376;SDS011;3221;48.858;10.128;2023-06-14T05:09:24;6.37;;;4.73;;
6376;SDS011;3221;48.858;10.128;2023-06-14T05:11:51;7.23;;;5.60;;
6376;SDS011;3221;48.858;10.128;2023-06-14T05:14:19;9.13;;;6.20;;
6376;SDS011;3221;48.858;10.128;2023-06-14T05:16:46;6.30;;;5.70;;
6376;SDS011;3221;48.858;10.128;2023-06-14T05:19:15;6.03;;;4.83;;
6376;SDS011;3221;48.858;10.128;2023-06-14T05:21:44;5.70;;;5.10;;
6376;SDS011;3221;48.858;10.128;2023-06-14T05:24:11;7.80;;;5.70;;
6376;SDS011;3221;48.858;10.128;2023-06-14T05:26:38;10.00;;;6.20;;
6376;SDS011;3221;48.858;10.128;2023-06-14T05:29:05;9.60;;;5.70;;
6376;SDS011;3221;48.858;10.128;2023-06-14T05:31:32;6.00;;;5.40;;
6376;SDS011;3221;48.858;10.128;2023-06-14T05:33:59;7.07;;;5.40;;
6376;SDS011;3221;48.858;10.128;2023-06-14T05:36:26;8.10;;;5.60;;
6376;SDS011;3221;48.858;10.128;2023-06-14T05:38:54;6.77;;;5.37;;
6376;SDS011;3221;48.858;10.128;2023-06-14T05:41:24;9.77;;;5.33;;
6376;SDS011;3221;48.858;10.128;2023-06-14T05:43:53;6.90;;;4.97;;
6376;SDS011;3221;48.858;10.128;2023-06-14T05:46:20;5.07;;;4.57;;
6376;SDS011;3221;48.858;10.128;2023-06-14T05:48:48;5.67;;;5.07;;
6376;SDS011;3221;48.858;10.128;2023-06-14T05:51:15;7.70;;;6.43;;
6376;SDS011;3221;48.858;10.128;2023-06-14T05:53:45;9.83;;;7.10;;
6376;SDS011;3221;48.858;10.128;2023-06-14T05:56:13;11.23;;;7.07;;
6376;SDS011;3221;48.858;10.128;2023-06-14T05:58:40;8.87;;;7.50;;
6376;SDS011;3221;48.858;10.128;2023-06-14T06:01:07;14.93;;;10.30;;
6376;SDS011;3221;48.858;10.128;2023-06-14T06:03:34;14.50;;;11.20;;
6376;SDS011;3221;48.858;10.128;2023-06-14T06:06:01;14.47;;;10.40;;
6376;SDS011;3221;48.858;10.128;2023-06-14T06:08:29;8.77;;;7.53;;
6376;SDS011;3221;48.858;10.128;2023-06-14T06:10:56;6.50;;;4.97;;
6376;SDS011;3221;48.858;10.128;2023-06-14T06:13:23;6.90;;;4.57;;
6376;SDS011;3221;48.858;10.128;2023-06-14T06:15:50;7.27;;;4.90;;
6376;SDS011;3221;48.858;10.128;2023-06-14T06:18:17;5.97;;;4.97;;
6376;SDS011;3221;48.858;10.128;2023-06-14T06:20:44;8.73;;;6.47;;
6376;SDS011;3221;48.858;10.128;2023-06-14T06:23:13;9.90;;;7.57;;
6376;SDS011;3221;48.858;10.128;2023-06-14T06:25:40;8.33;;;7.07;;
6376;SDS011;3221;48.858;10.128;2023-06-14T06:28:07;9.97;;;7.47;;
6376;SDS011;3221;48.858;10.128;2023-06-14T06:30:34;9.90;;;7.73;;
6376;SDS011;3221;48.858;10.128;2023-06-14T06:33:02;9.00;;;7.03;;
6376;SDS011;3221;48.858;10.128;2023-06-14T06:35:30;8.53;;;7.00;;
6376;SDS011;3221;48.858;10.128;2023-06-14T06:37:59;8.20;;;7.00;;
6376;SDS011;3221;48.858;10.128;2023-06-14T06:40:27;9.13;;;7.73;;
6376;SDS011;3221;48.858;10.128;2023-06-14T06:42:54;9.77;;;7.10;;
6376;SDS011;3221;48.858;10.128;2023-06-14T06:45:25;11.00;;;7.30;;
6376;SDS011;3221;48.858;10.128;2023-06-14T06:47:52;9.13;;;6.93;;
6376;SDS011;3221;48.858;10.128;2023-06-14T06:50:19;9.87;;;6.30;;
6376;SDS011;3221;48.858;10.128;2023-06-14T06:52:46;6.80;;;6.03;;
6376;SDS011;3221;48.858;10.128;2023-06-14T06:55:13;8.03;;;6.00;;
6376;SDS011;3221;48.858;10.128;2023-06-14T06:57:41;6.57;;;5.97;;
6376;SDS011;3221;48.858;10.128;2023-06-14T07:00:08;6.43;;;5.57;;
6376;SDS011;3221;48.858;10.128;2023-06-14T07:02:36;7.67;;;5.50;;
6376;SDS011;3221;48.858;10.128;2023-06-14T07:05:03;9.03;;;5.90;;
6376;SDS011;3221;48.858;10.128;2023-06-14T07:07:31;5.63;;;5.03;;
6376;SDS011;3221;48.858;10.128;2023-06-14T07:09:58;5.50;;;4.67;;
6376;SDS011;3221;48.858;10.128;2023-06-14T07:12:26;5.00;;;4.27;;
6376;SDS011;3221;48.858;10.128;2023-06-14T07:14:53;5.80;;;4.90;;
6376;SDS011;3221;48.858;10.128;2023-06-14T07:17:20;6.03;;;4.53;;
6376;SDS011;3221;48.858;10.128;2023-06-14T07:19:47;5.93;;;4.80;;
6376;SDS011;3221;48.858;10.128;2023-06-14T07:22:15;5.33;;;4.73;;
6376;SDS011;3221;48.858;10.128;2023-06-14T07:24:41;6.63;;;4.83;;
6376;SDS011;3221;48.858;10.128;2023-06-14T07:27:09;6.60;;;4.97;;
6376;SDS011;3221;48.858;10.128;2023-06-14T07:29:40;7.80;;;5.00;;
6376;SDS011;3221;48.858;10.128;2023-06-14T07:32:07;5.53;;;4.90;;
6376;SDS011;3221;48.858;10.128;2023-06-14T07:34:34;6.07;;;5.23;;
6376;SDS011;3221;48.858;10.128;2023-06-14T07:37:01;6.70;;;5.13;;
6376;SDS011;3221;48.858;10.128;2023-06-14T07:39:28;8.37;;;5.27;;
6376;SDS011;3221;48.858;10.128;2023-06-14T07:41:55;7.73;;;5.70;;
6376;SDS011;3221;48.858;10.128;2023-06-14T07:44:22;5.90;;;5.20;;
6376;SDS011;3221;48.858;10.128;2023-06-14T07:46:49;5.37;;;4.87;;
6376;SDS011;3221;48.858;10.128;2023-06-14T07:49:16;6.03;;;4.80;;
6376;SDS011;3221;48.858;10.128;2023-06-14T07:51:43;6.57;;;5.60;;
6376;SDS011;3221;48.858;10.128;2023-06-14T07:54:11;8.50;;;5.30;;
6376;SDS011;3221;48.858;10.128;2023-06-14T07:56:38;6.67;;;5.43;;
6376;SDS011;3221;48.858;10.128;2023-06-14T07:59:06;5.73;;;4.60;;
6376;SDS011;3221;48.858;10.128;2023-06-14T08:01:34;7.07;;;5.43;;
6376;SDS011;3221;48.858;10.128;2023-06-14T08:04:01;5.73;;;5.13;;
6376;SDS011;3221;48.858;10.128;2023-06-14T08:06:28;5.37;;;4.87;;
6376;SDS011;3221;48.858;10.128;2023-06-14T08:08:55;8.20;;;5.73;;
6376;SDS011;3221;48.858;10.128;2023-06-14T08:11:22;8.40;;;5.47;;
6376;SDS011;3221;48.858;10.128;2023-06-14T08:13:50;5.50;;;4.77;;
6376;SDS011;3221;48.858;10.128;2023-06-14T08:16:17;6.00;;;5.40;;
6376;SDS011;3221;48.858;10.128;2023-06-14T08:18:44;7.33;;;5.20;;
6376;SDS011;3221;48.858;10.128;2023-06-14T08:21:11;9.37;;;5.60;;
6376;SDS011;3221;48.858;10.128;2023-06-14T08:23:40;6.60;;;5.27;;
6376;SDS011;3221;48.858;10.128;2023-06-14T08:26:09;7.00;;;5.20;;
6376;SDS011;3221;48.858;10.128;2023-06-14T08:28:37;5.23;;;4.73;;
6376;SDS011;3221;48.858;10.128;2023-06-14T08:31:04;5.20;;;4.70;;
6376;SDS011;3221;48.858;10.128;2023-06-14T08:33:31;4.63;;;4.23;;
6376;SDS011;3221;48.858;10.128;2023-06-14T08:36:01;6.80;;;5.40;;
6376;SDS011;3221;48.858;10.128;2023-06-14T08:38:27;5.40;;;4.90;;
6376;SDS011;3221;48.858;10.128;2023-06-14T08:40:56;8.17;;;5.10;;
6376;SDS011;3221;48.858;10.128;2023-06-14T08:43:24;5.37;;;4.63;;
6376;SDS011;3221;48.858;10.128;2023-06-14T08:45:54;6.33;;;5.53;;
6376;SDS011;3221;48.858;10.128;2023-06-14T08:48:26;8.83;;;5.97;;
6376;SDS011;3221;48.858;10.128;2023-06-14T08:50:56;6.63;;;5.23;;
6376;SDS011;3221;48.858;10.128;2023-06-14T08:53:29;6.00;;;5.30;;
6376;SDS011;3221;48.858;10.128;2023-06-14T08:56:01;6.83;;;5.87;;
6376;SDS011;3221;48.858;10.128;2023-06-14T08:58:31;7.23;;;5.03;;
6376;SDS011;3221;48.858;10.128;2023-06-14T09:01:03;7.57;;;5.20;;
6376;SDS011;3221;48.858;10.128;2023-06-14T09:03:31;13.47;;;5.33;;
6376;SDS011;3221;48.858;10.128;2023-06-14T09:05:59;7.37;;;4.93;;
6376;SDS011;3221;48.858;10.128;2023-06-14T09:08:27;5.87;;;5.27;;
6376;SDS011;3221;48.858;10.128;2023-06-14T09:10:57;5.53;;;5.00;;
6376;SDS011;3221;48.858;10.128;2023-06-14T09:13:25;5.53;;;5.00;;
6376;SDS011;3221;48.858;10.128;2023-06-14T09:15:57;5.47;;;4.93;;
6376;SDS011;3221;48.858;10.128;2023-06-14T09:18:33;7.73;;;5.23;;
6376;SDS011;3221;48.858;10.128;2023-06-14T09:21:08;5.60;;;4.90;;
6376;SDS011;3221;48.858;10.128;2023-06-14T09:23:38;6.07;;;4.87;;
6376;SDS011;3221;48.858;10.128;2023-06-14T09:26:14;5.83;;;4.90;;
6376;SDS011;3221;48.858;10.128;2023-06-14T09:28:43;6.30;;;5.00;;
6376;SDS011;3221;48.858;10.128;2023-06-14T09:31:11;9.87;;;4.77;;
6376;SDS011;3221;48.858;10.128;2023-06-14T09:33:49;5.57;;;4.97;;
6376;SDS011;3221;48.858;10.128;2023-06-14T09:36:23;8.03;;;5.10;;
6376;SDS011;3221;48.858;10.128;2023-06-14T09:38:52;5.97;;;5.37;;
6376;SDS011;3221;48.858;10.128;2023-06-14T09:41:39;7.90;;;5.40;;
6376;SDS011;3221;48.858;10.128;2023-06-14T09:44:07;6.93;;;5.10;;
6376;SDS011;3221;48.858;10.128;2023-06-14T09:46:41;5.73;;;5.20;;
6376;SDS011;3221;48.858;10.128;2023-06-14T09:49:08;5.77;;;4.83;;
6376;SDS011;3221;48.858;10.128;2023-06-14T09:51:36;6.13;;;5.17;;
6376;SDS011;3221;48.858;10.128;2023-06-14T09:54:12;7.20;;;5.37;;
6376;SDS011;3221;48.858;10.128;2023-06-14T09:56:44;5.73;;;4.90;;
6376;SDS011;3221;48.858;10.128;2023-06-14T09:59:12;5.63;;;4.60;;
6376;SDS011;3221;48.858;10.128;2023-06-14T10:01:42;5.93;;;4.23;;
6376;SDS011;3221;48.858;10.128;2023-06-14T10:04:10;5.07;;;4.30;;
6376;SDS011;3221;48.858;10.128;2023-06-14T10:06:43;5.13;;;4.63;;
6376;SDS011;3221;48.858;10.128;2023-06-14T10:09:12;6.60;;;4.57;;
6376;SDS011;3221;48.858;10.128;2023-06-14T10:11:40;8.33;;;4.70;;
6376;SDS011;3221;48.858;10.128;2023-06-14T10:14:11;5.40;;;4.43;;
6376;SDS011;3221;48.858;10.128;2023-06-14T10:17:01;6.87;;;5.17;;
6376;SDS011;3221;48.858;10.128;2023-06-14T10:19:48;5.17;;;4.60;;
6376;SDS011;3221;48.858;10.128;2023-06-14T10:22:26;5.30;;;4.60;;
6376;SDS011;3221;48.858;10.128;2023-06-14T10:25:07;7.30;;;5.33;;
6376;SDS011;3221;48.858;10.128;2023-06-14T10:27:41;6.10;;;4.57;;
6376;SDS011;3221;48.858;10.128;2023-06-14T10:30:12;9.03;;;5.33;;
6376;SDS011;3221;48.858;10.128;2023-06-14T10:35:34;8.73;;;4.73;;
6376;SDS011;3221;48.858;10.128;2023-06-14T10:38:08;5.80;;;4.70;;
6376;SDS011;3221;48.858;10.128;2023-06-14T10:40:35;8.10;;;4.60;;
6376;SDS011;3221;48.858;10.128;2023-06-14T10:43:20;8.33;;;4.93;;
6376;SDS011;3221;48.858;10.128;2023-06-14T10:46:11;7.37;;;4.10;;
6376;SDS011;3221;48.858;10.128;2023-06-14T10:48:42;6.33;;;4.37;;
6376;SDS011;3221;48.858;10.128;2023-06-14T10:51:17;7.20;;;5.07;;
6376;SDS011;3221;48.858;10.128;2023-06-14T10:53:47;5.73;;;4.93;;
6376;SDS011;3221;48.858;10.128;2023-06-14T10:56:28;6.13;;;4.63;;
6376;SDS011;3221;48.858;10.128;2023-06-14T10:58:57;5.70;;;5.17;;
6376;SDS011;3221;48.858;10.128;2023-06-14T11:01:32;5.73;;;4.83;;
6376;SDS011;3221;48.858;10.128;2023-06-14T11:04:07;5.93;;;4.80;;
6376;SDS011;3221;48.858;10.128;2023-06-14T11:09:20;5.40;;;4.90;;
6376;SDS011;3221;48.858;10.128;2023-06-14T11:11:56;5.43;;;4.10;;
6376;SDS011;3221;48.858;10.128;2023-06-14T11:14:23;4.80;;;4.13;;
6376;SDS011;3221;48.858;10.128;2023-06-14T11:16:50;4.77;;;4.27;;
6376;SDS011;3221;48.858;10.128;2023-06-14T11:19:17;5.70;;;4.83;;
6376;SDS011;3221;48.858;10.128;2023-06-14T11:21:47;6.67;;;5.00;;
6376;SDS011;3221;48.858;10.128;2023-06-14T11:24:14;5.70;;;4.53;;
6376;SDS011;3221;48.858;10.128;2023-06-14T11:26:43;4.70;;;4.07;;
6376;SDS011;3221;48.858;10.128;2023-06-14T11:29:10;5.00;;;4.57;;
6376;SDS011;3221;48.858;10.128;2023-06-14T11:31:37;5.70;;;4.67;;
6376;SDS011;3221;48.858;10.128;2023-06-14T11:34:04;5.53;;;4.30;;
6376;SDS011;3221;48.858;10.128;2023-06-14T11:36:33;5.87;;;4.90;;
6376;SDS011;3221;48.858;10.128;2023-06-14T11:39:05;4.80;;;4.30;;
6376;SDS011;3221;48.858;10.128;2023-06-14T11:41:36;5.50;;;4.70;;
6376;SDS011;3221;48.858;10.128;2023-06-14T11:44:05;6.13;;;4.33;;
6376;SDS011;3221;48.858;10.128;2023-06-14T11:46:33;5.10;;;4.67;;
6376;SDS011;3221;48.858;10.128;2023-06-14T11:49:01;4.90;;;4.50;;
6376;SDS011;3221;48.858;10.128;2023-06-14T11:51:31;6.00;;;4.53;;
6376;SDS011;3221;48.858;10.128;2023-06-14T11:53:59;5.17;;;4.57;;
6376;SDS011;3221;48.858;10.128;2023-06-14T11:56:29;6.53;;;4.27;;
6376;SDS011;3221;48.858;10.128;2023-06-14T11:58:58;6.93;;;4.77;;
6376;SDS011;3221;48.858;10.128;2023-06-14T12:01:25;5.43;;;4.33;;
6376;SDS011;3221;48.858;10.128;2023-06-14T12:03:53;8.57;;;5.07;;
6376;SDS011;3221;48.858;10.128;2023-06-14T12:06:27;6.13;;;4.60;;
6376;SDS011;3221;48.858;10.128;2023-06-14T12:08:59;7.63;;;5.23;;
6376;SDS011;3221;48.858;10.128;2023-06-14T12:11:32;7.03;;;4.47;;
6376;SDS011;3221;48.858;10.128;2023-06-14T12:14:02;6.57;;;4.63;;
6376;SDS011;3221;48.858;10.128;2023-06-14T12:16:34;4.47;;;4.07;;
6376;SDS011;3221;48.858;10.128;2023-06-14T12:19:16;7.17;;;4.30;;
6376;SDS011;3221;48.858;10.128;2023-06-14T12:21:47;6.90;;;4.70;;
6376;SDS011;3221;48.858;10.128;2023-06-14T12:24:18;4.73;;;4.33;;
6376;SDS011;3221;48.858;10.128;2023-06-14T12:26:45;10.30;;;4.70;;
6376;SDS011;3221;48.858;10.128;2023-06-14T12:29:13;5.50;;;4.33;;
6376;SDS011;3221;48.858;10.128;2023-06-14T12:31:40;5.40;;;4.67;;
6376;SDS011;3221;48.858;10.128;2023-06-14T12:34:07;5.67;;;4.50;;
6376;SDS011;3221;48.858;10.128;2023-06-14T12:36:34;4.93;;;4.43;;
6376;SDS011;3221;48.858;10.128;2023-06-14T12:39:06;6.03;;;4.50;;
6376;SDS011;3221;48.858;10.128;2023-06-14T12:41:34;6.00;;;4.50;;
6376;SDS011;3221;48.858;10.128;2023-06-14T12:44:03;6.07;;;4.70;;
6376;SDS011;3221;48.858;10.128;2023-06-14T12:46:33;6.07;;;5.07;;
6376;SDS011;3221;48.858;10.128;2023-06-14T12:49:01;6.03;;;4.73;;
6376;SDS011;3221;48.858;10.128;2023-06-14T12:51:28;6.83;;;4.60;;
6376;SDS011;3221;48.858;10.128;2023-06-14T12:53:55;6.27;;;4.60;;
6376;SDS011;3221;48.858;10.128;2023-06-14T12:56:22;6.10;;;4.43;;
6376;SDS011;3221;48.858;10.128;2023-06-14T12:58:50;5.60;;;4.67;;
6376;SDS011;3221;48.858;10.128;2023-06-14T13:01:17;5.73;;;4.30;;
6376;SDS011;3221;48.858;10.128;2023-06-14T13:03:45;5.83;;;4.60;;
6376;SDS011;3221;48.858;10.128;2023-06-14T13:06:13;7.30;;;4.97;;
6376;SDS011;3221;48.858;10.128;2023-06-14T13:08:40;5.43;;;4.80;;
6376;SDS011;3221;48.858;10.128;2023-06-14T13:11:07;4.93;;;4.43;;
6376;SDS011;3221;48.858;10.128;2023-06-14T13:13:34;4.73;;;4.30;;
6376;SDS011;3221;48.858;10.128;2023-06-14T13:16:01;5.90;;;4.83;;
6376;SDS011;3221;48.858;10.128;2023-06-14T13:18:28;4.90;;;4.40;;
6376;SDS011;3221;48.858;10.128;2023-06-14T13:20:55;6.27;;;4.40;;
6376;SDS011;3221;48.858;10.128;2023-06-14T13:23:22;5.97;;;4.47;;
6376;SDS011;3221;48.858;10.128;2023-06-14T13:25:50;4.80;;;4.30;;
6376;SDS011;3221;48.858;10.128;2023-06-14T13:28:17;5.57;;;4.63;;
6376;SDS011;3221;48.858;10.128;2023-06-14T13:30:44;5.93;;;4.47;;
6376;SDS011;3221;48.858;10.128;2023-06-14T13:33:11;4.77;;;3.83;;
6376;SDS011;3221;48.858;10.128;2023-06-14T13:35:39;7.17;;;3.93;;
6376;SDS011;3221;48.858;10.128;2023-06-14T13:38:06;5.40;;;4.40;;
6376;SDS011;3221;48.858;10.128;2023-06-14T13:40:35;6.50;;;4.17;;
6376;SDS011;3221;48.858;10.128;2023-06-14T13:43:02;4.70;;;4.30;;
6376;SDS011;3221;48.858;10.128;2023-06-14T13:45:29;7.13;;;4.60;;
6376;SDS011;3221;48.858;10.128;2023-06-14T13:48:14;5.57;;;4.20;;
6376;SDS011;3221;48.858;10.128;2023-06-14T13:50:59;5.87;;;4.10;;
6376;SDS011;3221;48.858;10.128;2023-06-14T13:53:46;5.30;;;4.60;;
6376;SDS011;3221;48.858;10.128;2023-06-14T13:56:34;5.10;;;4.37;;
6376;SDS011;3221;48.858;10.128;2023-06-14T13:59:18;4.87;;;4.10;;
6376;SDS011;3221;48.858;10.128;2023-06-14T14:02:02;5.00;;;4.60;;
6376;SDS011;3221;48.858;10.128;2023-06-14T14:04:47;6.97;;;4.30;;
6376;SDS011;3221;48.858;10.128;2023-06-14T14:07:37;6.03;;;4.37;;
6376;SDS011;3221;48.858;10.128;2023-06-14T14:10:21;5.30;;;4.10;;
6376;SDS011;3221;48.858;10.128;2023-06-14T14:13:07;5.83;;;4.50;;
6376;SDS011;3221;48.858;10.128;2023-06-14T14:15:51;7.70;;;4.43;;
6376;SDS011;3221;48.858;10.128;2023-06-14T14:18:36;6.13;;;4.10;;
6376;SDS011;3221;48.858;10.128;2023-06-14T14:21:21;4.90;;;4.40;;
6376;SDS011;3221;48.858;10.128;2023-06-14T14:24:05;4.73;;;4.27;;
6376;SDS011;3221;48.858;10.128;2023-06-14T14:26:51;5.60;;;3.77;;
6376;SDS011;3221;48.858;10.128;2023-06-14T14:29:37;6.30;;;4.30;;
6376;SDS011;3221;48.858;10.128;2023-06-14T14:32:04;4.57;;;4.00;;
6376;SDS011;3221;48.858;10.128;2023-06-14T14:34:31;4.30;;;3.80;;
6376;SDS011;3221;48.858;10.128;2023-06-14T14:36:58;4.87;;;4.37;;
6376;SDS011;3221;48.858;10.128;2023-06-14T14:39:24;4.40;;;4.00;;
6376;SDS011;3221;48.858;10.128;2023-06-14T14:41:51;4.27;;;3.87;;
6376;SDS011;3221;48.858;10.128;2023-06-14T14:44:18;4.63;;;4.23;;
6376;SDS011;3221;48.858;10.128;2023-06-14T14:46:45;6.33;;;4.20;;
6376;SDS011;3221;48.858;10.128;2023-06-14T14:49:12;6.13;;;4.03;;
6376;SDS011;3221;48.858;10.128;2023-06-14T14:51:39;4.50;;;4.10;;
6376;SDS011;3221;48.858;10.128;2023-06-14T14:54:06;6.53;;;3.83;;
6376;SDS011;3221;48.858;10.128;2023-06-14T14:56:33;5.20;;;4.43;;
6376;SDS011;3221;48.858;10.128;2023-06-14T14:59:01;5.93;;;4.20;;
6376;SDS011;3221;48.858;10.128;2023-06-14T15:01:29;5.07;;;4.07;;
6376;SDS011;3221;48.858;10.128;2023-06-14T15:03:56;5.43;;;4.17;;
6376;SDS011;3221;48.858;10.128;2023-06-14T15:06:25;5.23;;;3.93;;
6376;SDS011;3221;48.858;10.128;2023-06-14T15:08:52;4.67;;;4.23;;
6376;SDS011;3221;48.858;10.128;2023-06-14T15:11:19;7.17;;;4.20;;
6376;SDS011;3221;48.858;10.128;2023-06-14T15:13:46;5.80;;;4.23;;
6376;SDS011;3221;48.858;10.128;2023-06-14T15:16:13;8.97;;;4.10;;
6376;SDS011;3221;48.858;10.128;2023-06-14T15:18:41;6.23;;;4.50;;
6376;SDS011;3221;48.858;10.128;2023-06-14T15:21:08;8.27;;;4.57;;
6376;SDS011;3221;48.858;10.128;2023-06-14T15:23:34;6.37;;;4.40;;